sensor_id;sensor_type;location;lat;lon;timestamp;temperature;humidity
36280;DHT22;22317;47.936;12.742;2023-05-19T00:01:10;8.90;53.90
36280;DHT22;22317;47.936;12.742;2023-05-19T00:03:51;8.90;53.90
36280;DHT22;22317;47.936;12.742;2023-05-19T00:06:23;8.90;53.90
36280;DHT22;22317;47.936;12.742;2023-05-19T00:08:55;8.80;54.00
36280;DHT22;22317;47.936;12.742;2023-05-19T00:11:21;8.80;54.10
36280;DHT22;22317;47.936;12.742;2023-05-19T00:13:47;8.90;54.10
36280;DHT22;22317;47.936;12.742;2023-05-19T00:16:14;8.80;54.10
36280;DHT22;22317;47.936;12.742;2023-05-19T00:18:40;8.80;54.00
36280;DHT22;22317;47.936;12.742;2023-05-19T00:21:06;8.90;54.10
36280;DHT22;22317;47.936;12.742;2023-05-19T00:23:32;8.80;54.20
36280;DHT22;22317;47.936;12.742;2023-05-19T00:25:57;8.80;54.80
36280;DHT22;22317;47.936;12.742;2023-05-19T00:28:23;8.80;54.20
36280;DHT22;22317;47.936;12.742;2023-05-19T00:30:50;8.80;54.30
36280;DHT22;22317;47.936;12.742;2023-05-19T00:33:16;8.80;54.30
36280;DHT22;22317;47.936;12.742;2023-05-19T00:35:42;8.80;54.40
36280;DHT22;22317;47.936;12.742;2023-05-19T00:38:07;8.80;55.00
36280;DHT22;22317;47.936;12.742;2023-05-19T00:40:34;8.80;54.40
36280;DHT22;22317;47.936;12.742;2023-05-19T00:43:03;8.80;54.40
36280;DHT22;22317;47.936;12.742;2023-05-19T00:45:33;8.80;54.50
36280;DHT22;22317;47.936;12.742;2023-05-19T00:47:59;8.80;54.50
36280;DHT22;22317;47.936;12.742;2023-05-19T00:50:26;8.80;54.50
36280;DHT22;22317;47.936;12.742;2023-05-19T00:52:54;8.80;54.50
36280;DHT22;22317;47.936;12.742;2023-05-19T00:55:26;8.80;54.50
36280;DHT22;22317;47.936;12.742;2023-05-19T00:57:54;8.70;54.50
36280;DHT22;22317;47.936;12.742;2023-05-19T01:00:20;8.80;54.60
36280;DHT22;22317;47.936;12.742;2023-05-19T01:02:46;8.70;54.60
36280;DHT22;22317;47.936;12.742;2023-05-19T01:05:12;8.70;54.60
36280;DHT22;22317;47.936;12.742;2023-05-19T01:07:39;8.70;54.60
36280;DHT22;22317;47.936;12.742;2023-05-19T01:10:06;8.70;54.60
36280;DHT22;22317;47.936;12.742;2023-05-19T01:12:33;8.60;54.60
36280;DHT22;22317;47.936;12.742;2023-05-19T01:15:01;8.60;54.60
36280;DHT22;22317;47.936;12.742;2023-05-19T01:20:13;8.60;54.80
36280;DHT22;22317;47.936;12.742;2023-05-19T01:32:58;8.60;55.00
36280;DHT22;22317;47.936;12.742;2023-05-19T01:35:25;8.20;54.90
36280;DHT22;22317;47.936;12.742;2023-05-19T01:37:55;8.60;55.10
36280;DHT22;22317;47.936;12.742;2023-05-19T01:40:23;8.60;55.10
36280;DHT22;22317;47.936;12.742;2023-05-19T01:42:52;8.60;55.10
36280;DHT22;22317;47.936;12.742;2023-05-19T01:45:19;8.60;55.10
36280;DHT22;22317;47.936;12.742;2023-05-19T01:47:49;8.50;55.10
36280;DHT22;22317;47.936;12.742;2023-05-19T01:50:15;8.50;55.20
36280;DHT22;22317;47.936;12.742;2023-05-19T01:52:41;8.50;55.20
36280;DHT22;22317;47.936;12.742;2023-05-19T01:55:08;8.50;55.30
36280;DHT22;22317;47.936;12.742;2023-05-19T02:01:00;8.40;55.60
36280;DHT22;22317;47.936;12.742;2023-05-19T02:07:00;8.40;55.70
36280;DHT22;22317;47.936;12.742;2023-05-19T02:12:35;8.30;55.70
36280;DHT22;22317;47.936;12.742;2023-05-19T02:15:15;8.30;55.90
36280;DHT22;22317;47.936;12.742;2023-05-19T02:17:43;8.30;55.80
36280;DHT22;22317;47.936;12.742;2023-05-19T02:20:16;8.30;55.80
36280;DHT22;22317;47.936;12.742;2023-05-19T02:22:42;8.20;55.80
36280;DHT22;22317;47.936;12.742;2023-05-19T02:25:09;8.20;55.90
36280;DHT22;22317;47.936;12.742;2023-05-19T02:27:36;8.20;55.90
36280;DHT22;22317;47.936;12.742;2023-05-19T02:30:06;8.10;55.90
36280;DHT22;22317;47.936;12.742;2023-05-19T02:32:32;8.10;56.10
36280;DHT22;22317;47.936;12.742;2023-05-19T02:34:58;8.10;56.20
36280;DHT22;22317;47.936;12.742;2023-05-19T02:37:25;8.10;56.30
36280;DHT22;22317;47.936;12.742;2023-05-19T02:39:53;8.10;56.40
36280;DHT22;22317;47.936;12.742;2023-05-19T02:42:20;8.10;56.50
36280;DHT22;22317;47.936;12.742;2023-05-19T02:44:47;8.10;56.50
36280;DHT22;22317;47.936;12.742;2023-05-19T02:47:13;8.10;56.50
36280;DHT22;22317;47.936;12.742;2023-05-19T02:49:39;8.10;56.50
36280;DHT22;22317;47.936;12.742;2023-05-19T02:52:05;8.10;56.50
36280;DHT22;22317;47.936;12.742;2023-05-19T02:54:33;8.10;56.60
36280;DHT22;22317;47.936;12.742;2023-05-19T02:56:59;8.00;56.70
36280;DHT22;22317;47.936;12.742;2023-05-19T02:59:26;8.00;56.70
36280;DHT22;22317;47.936;12.742;2023-05-19T03:01:55;8.00;56.70
36280;DHT22;22317;47.936;12.742;2023-05-19T03:04:21;8.00;56.80
36280;DHT22;22317;47.936;12.742;2023-05-19T03:06:46;8.00;56.80
36280;DHT22;22317;47.936;12.742;2023-05-19T03:09:13;8.00;56.80
36280;DHT22;22317;47.936;12.742;2023-05-19T03:11:39;8.00;56.90
36280;DHT22;22317;47.936;12.742;2023-05-19T03:14:05;8.00;56.90
36280;DHT22;22317;47.936;12.742;2023-05-19T03:16:31;8.00;57.00
36280;DHT22;22317;47.936;12.742;2023-05-19T03:18:57;8.10;57.00
36280;DHT22;22317;47.936;12.742;2023-05-19T03:21:22;8.10;57.10
36280;DHT22;22317;47.936;12.742;2023-05-19T03:23:48;8.10;57.00
36280;DHT22;22317;47.936;12.742;2023-05-19T03:26:14;8.10;57.10
36280;DHT22;22317;47.936;12.742;2023-05-19T03:28:40;8.10;57.10
36280;DHT22;22317;47.936;12.742;2023-05-19T03:31:06;8.10;57.00
36280;DHT22;22317;47.936;12.742;2023-05-19T03:33:36;8.10;57.00
36280;DHT22;22317;47.936;12.742;2023-05-19T03:36:02;8.10;57.00
36280;DHT22;22317;47.936;12.742;2023-05-19T03:38:32;8.10;57.10
36280;DHT22;22317;47.936;12.742;2023-05-19T03:40:59;8.10;57.10
36280;DHT22;22317;47.936;12.742;2023-05-19T03:43:25;8.10;57.10
36280;DHT22;22317;47.936;12.742;2023-05-19T03:45:55;8.10;57.10
36280;DHT22;22317;47.936;12.742;2023-05-19T03:48:37;8.10;57.10
36280;DHT22;22317;47.936;12.742;2023-05-19T03:51:21;8.10;57.10
36280;DHT22;22317;47.936;12.742;2023-05-19T03:53:49;8.10;57.10
36280;DHT22;22317;47.936;12.742;2023-05-19T03:56:15;8.10;57.20
36280;DHT22;22317;47.936;12.742;2023-05-19T03:58:42;8.10;57.30
36280;DHT22;22317;47.936;12.742;2023-05-19T04:01:09;8.10;57.20
36280;DHT22;22317;47.936;12.742;2023-05-19T04:03:35;8.10;57.30
36280;DHT22;22317;47.936;12.742;2023-05-19T04:06:01;8.10;57.30
36280;DHT22;22317;47.936;12.742;2023-05-19T04:08:27;8.10;57.40
36280;DHT22;22317;47.936;12.742;2023-05-19T04:10:53;8.20;57.40
36280;DHT22;22317;47.936;12.742;2023-05-19T04:13:19;8.20;57.40
36280;DHT22;22317;47.936;12.742;2023-05-19T04:15:45;8.20;57.40
36280;DHT22;22317;47.936;12.742;2023-05-19T04:18:11;8.20;57.50
36280;DHT22;22317;47.936;12.742;2023-05-19T04:20:39;8.20;57.50
36280;DHT22;22317;47.936;12.742;2023-05-19T04:23:05;8.20;57.40
36280;DHT22;22317;47.936;12.742;2023-05-19T04:25:31;8.20;57.40
36280;DHT22;22317;47.936;12.742;2023-05-19T04:27:57;8.20;57.50
36280;DHT22;22317;47.936;12.742;2023-05-19T04:30:23;8.20;57.50
36280;DHT22;22317;47.936;12.742;2023-05-19T04:32:50;8.30;57.60
36280;DHT22;22317;47.936;12.742;2023-05-19T04:35:15;8.30;57.70
36280;DHT22;22317;47.936;12.742;2023-05-19T04:37:45;8.30;57.60
36280;DHT22;22317;47.936;12.742;2023-05-19T04:40:13;8.30;57.50
36280;DHT22;22317;47.936;12.742;2023-05-19T04:42:40;8.30;57.50
36280;DHT22;22317;47.936;12.742;2023-05-19T04:45:08;8.40;57.60
36280;DHT22;22317;47.936;12.742;2023-05-19T04:47:36;8.40;57.70
36280;DHT22;22317;47.936;12.742;2023-05-19T04:50:06;8.40;57.70
36280;DHT22;22317;47.936;12.742;2023-05-19T04:52:32;8.40;57.80
36280;DHT22;22317;47.936;12.742;2023-05-19T04:54:59;8.50;57.80
36280;DHT22;22317;47.936;12.742;2023-05-19T04:57:24;8.50;57.70
36280;DHT22;22317;47.936;12.742;2023-05-19T04:59:50;8.50;58.00
36280;DHT22;22317;47.936;12.742;2023-05-19T05:02:16;8.60;57.80
36280;DHT22;22317;47.936;12.742;2023-05-19T05:04:42;8.60;57.80
36280;DHT22;22317;47.936;12.742;2023-05-19T05:07:09;8.60;57.80
36280;DHT22;22317;47.936;12.742;2023-05-19T05:09:35;8.60;57.90
36280;DHT22;22317;47.936;12.742;2023-05-19T05:12:02;8.70;57.80
36280;DHT22;22317;47.936;12.742;2023-05-19T05:14:29;8.70;57.90
36280;DHT22;22317;47.936;12.742;2023-05-19T05:16:55;8.70;57.80
36280;DHT22;22317;47.936;12.742;2023-05-19T05:19:23;8.80;57.90
36280;DHT22;22317;47.936;12.742;2023-05-19T05:21:49;8.80;57.80
36280;DHT22;22317;47.936;12.742;2023-05-19T05:24:16;8.80;57.70
36280;DHT22;22317;47.936;12.742;2023-05-19T05:26:47;8.90;57.70
36280;DHT22;22317;47.936;12.742;2023-05-19T05:29:13;8.90;57.80
36280;DHT22;22317;47.936;12.742;2023-05-19T05:31:38;8.90;57.70
36280;DHT22;22317;47.936;12.742;2023-05-19T05:34:05;9.00;57.90
36280;DHT22;22317;47.936;12.742;2023-05-19T05:36:31;9.10;57.90
36280;DHT22;22317;47.936;12.742;2023-05-19T05:39:00;9.10;57.80
36280;DHT22;22317;47.936;12.742;2023-05-19T05:41:27;9.20;57.80
36280;DHT22;22317;47.936;12.742;2023-05-19T05:44:00;9.30;57.80
36280;DHT22;22317;47.936;12.742;2023-05-19T05:46:28;9.40;57.80
36280;DHT22;22317;47.936;12.742;2023-05-19T05:48:54;9.50;57.80
36280;DHT22;22317;47.936;12.742;2023-05-19T05:51:21;9.60;57.70
36280;DHT22;22317;47.936;12.742;2023-05-19T05:53:52;9.70;57.60
36280;DHT22;22317;47.936;12.742;2023-05-19T05:56:20;9.70;57.60
36280;DHT22;22317;47.936;12.742;2023-05-19T05:58:50;9.80;57.50
36280;DHT22;22317;47.936;12.742;2023-05-19T06:01:16;9.90;57.20
36280;DHT22;22317;47.936;12.742;2023-05-19T06:03:42;10.00;57.10
36280;DHT22;22317;47.936;12.742;2023-05-19T06:06:12;10.00;57.10
36280;DHT22;22317;47.936;12.742;2023-05-19T06:08:39;10.10;57.00
36280;DHT22;22317;47.936;12.742;2023-05-19T06:11:04;10.20;56.80
36280;DHT22;22317;47.936;12.742;2023-05-19T06:13:37;10.30;56.70
36280;DHT22;22317;47.936;12.742;2023-05-19T06:16:06;10.40;56.50
36280;DHT22;22317;47.936;12.742;2023-05-19T06:18:38;10.50;56.50
36280;DHT22;22317;47.936;12.742;2023-05-19T06:21:03;10.60;56.30
36280;DHT22;22317;47.936;12.742;2023-05-19T06:23:30;10.60;56.10
36280;DHT22;22317;47.936;12.742;2023-05-19T06:25:55;10.70;55.90
36280;DHT22;22317;47.936;12.742;2023-05-19T06:28:22;10.70;55.80
36280;DHT22;22317;47.936;12.742;2023-05-19T06:30:50;10.80;56.20
36280;DHT22;22317;47.936;12.742;2023-05-19T06:33:36;10.80;55.40
36280;DHT22;22317;47.936;12.742;2023-05-19T06:36:02;10.90;55.30
36280;DHT22;22317;47.936;12.742;2023-05-19T06:38:29;11.00;55.30
36280;DHT22;22317;47.936;12.742;2023-05-19T06:40:56;11.10;55.40
36280;DHT22;22317;47.936;12.742;2023-05-19T06:43:21;11.20;55.30
36280;DHT22;22317;47.936;12.742;2023-05-19T06:45:54;11.40;55.30
36280;DHT22;22317;47.936;12.742;2023-05-19T06:48:21;11.50;55.10
36280;DHT22;22317;47.936;12.742;2023-05-19T06:50:47;11.70;55.00
36280;DHT22;22317;47.936;12.742;2023-05-19T06:53:13;11.80;54.90
36280;DHT22;22317;47.936;12.742;2023-05-19T06:55:39;11.90;55.00
36280;DHT22;22317;47.936;12.742;2023-05-19T06:58:06;12.10;54.60
36280;DHT22;22317;47.936;12.742;2023-05-19T07:00:32;12.20;54.30
36280;DHT22;22317;47.936;12.742;2023-05-19T07:02:59;12.30;53.90
36280;DHT22;22317;47.936;12.742;2023-05-19T07:05:25;12.30;53.40
36280;DHT22;22317;47.936;12.742;2023-05-19T07:07:55;12.30;53.30
36280;DHT22;22317;47.936;12.742;2023-05-19T07:10:24;12.30;53.20
36280;DHT22;22317;47.936;12.742;2023-05-19T07:12:51;12.40;53.20
36280;DHT22;22317;47.936;12.742;2023-05-19T07:15:18;12.40;53.10
36280;DHT22;22317;47.936;12.742;2023-05-19T07:17:43;12.50;53.20
36280;DHT22;22317;47.936;12.742;2023-05-19T07:20:09;12.60;53.10
36280;DHT22;22317;47.936;12.742;2023-05-19T07:22:36;12.60;52.60
36280;DHT22;22317;47.936;12.742;2023-05-19T07:25:03;12.60;52.30
36280;DHT22;22317;47.936;12.742;2023-05-19T07:27:29;12.60;52.20
36280;DHT22;22317;47.936;12.742;2023-05-19T07:29:55;12.60;52.00
36280;DHT22;22317;47.936;12.742;2023-05-19T07:32:20;12.60;51.90
36280;DHT22;22317;47.936;12.742;2023-05-19T07:34:46;12.60;51.90
36280;DHT22;22317;47.936;12.742;2023-05-19T07:37:12;12.50;51.60
36280;DHT22;22317;47.936;12.742;2023-05-19T07:39:37;12.50;51.50
36280;DHT22;22317;47.936;12.742;2023-05-19T07:42:03;12.50;51.60
36280;DHT22;22317;47.936;12.742;2023-05-19T07:44:29;12.50;51.70
36280;DHT22;22317;47.936;12.742;2023-05-19T07:46:56;12.50;51.70
36280;DHT22;22317;47.936;12.742;2023-05-19T07:49:22;12.60;51.60
36280;DHT22;22317;47.936;12.742;2023-05-19T07:51:48;12.60;51.60
36280;DHT22;22317;47.936;12.742;2023-05-19T07:54:13;12.60;51.50
36280;DHT22;22317;47.936;12.742;2023-05-19T07:56:39;12.60;51.40
36280;DHT22;22317;47.936;12.742;2023-05-19T07:59:05;12.60;51.20
36280;DHT22;22317;47.936;12.742;2023-05-19T08:01:32;12.50;51.20
36280;DHT22;22317;47.936;12.742;2023-05-19T08:03:58;12.50;51.10
36280;DHT22;22317;47.936;12.742;2023-05-19T08:06:24;12.50;51.00
36280;DHT22;22317;47.936;12.742;2023-05-19T08:08:50;12.40;50.90
36280;DHT22;22317;47.936;12.742;2023-05-19T08:11:17;12.40;50.90
36280;DHT22;22317;47.936;12.742;2023-05-19T08:13:43;12.30;50.90
36280;DHT22;22317;47.936;12.742;2023-05-19T08:16:09;12.30;51.00
36280;DHT22;22317;47.936;12.742;2023-05-19T08:18:35;12.30;51.10
36280;DHT22;22317;47.936;12.742;2023-05-19T08:21:01;12.30;51.10
36280;DHT22;22317;47.936;12.742;2023-05-19T08:23:26;12.20;51.00
36280;DHT22;22317;47.936;12.742;2023-05-19T08:25:52;12.20;50.90
36280;DHT22;22317;47.936;12.742;2023-05-19T08:28:18;12.20;51.00
36280;DHT22;22317;47.936;12.742;2023-05-19T08:30:44;12.20;51.10
36280;DHT22;22317;47.936;12.742;2023-05-19T08:33:09;12.10;50.90
36280;DHT22;22317;47.936;12.742;2023-05-19T08:35:36;12.10;50.90
36280;DHT22;22317;47.936;12.742;2023-05-19T08:38:02;12.00;51.10
36280;DHT22;22317;47.936;12.742;2023-05-19T08:40:28;12.00;51.10
36280;DHT22;22317;47.936;12.742;2023-05-19T08:42:55;12.00;51.10
36280;DHT22;22317;47.936;12.742;2023-05-19T08:45:22;12.10;51.20
36280;DHT22;22317;47.936;12.742;2023-05-19T08:47:49;12.10;51.20
36280;DHT22;22317;47.936;12.742;2023-05-19T08:50:21;12.20;51.30
36280;DHT22;22317;47.936;12.742;2023-05-19T08:53:09;12.20;51.30
36280;DHT22;22317;47.936;12.742;2023-05-19T08:55:50;12.30;51.30
36280;DHT22;22317;47.936;12.742;2023-05-19T08:58:18;12.40;51.30
36280;DHT22;22317;47.936;12.742;2023-05-19T09:00:47;12.50;51.20
36280;DHT22;22317;47.936;12.742;2023-05-19T09:03:14;12.50;51.00
36280;DHT22;22317;47.936;12.742;2023-05-19T09:05:42;12.50;50.90
36280;DHT22;22317;47.936;12.742;2023-05-19T09:08:07;12.60;50.90
36280;DHT22;22317;47.936;12.742;2023-05-19T09:10:33;12.60;50.80
36280;DHT22;22317;47.936;12.742;2023-05-19T09:12:59;12.70;50.80
36280;DHT22;22317;47.936;12.742;2023-05-19T09:15:26;12.80;50.90
36280;DHT22;22317;47.936;12.742;2023-05-19T09:18:11;12.90;50.60
36280;DHT22;22317;47.936;12.742;2023-05-19T09:20:42;13.00;50.40
36280;DHT22;22317;47.936;12.742;2023-05-19T09:23:12;13.10;50.30
36280;DHT22;22317;47.936;12.742;2023-05-19T09:26:01;13.20;50.20
36280;DHT22;22317;47.936;12.742;2023-05-19T09:28:34;13.20;49.90
36280;DHT22;22317;47.936;12.742;2023-05-19T09:31:04;13.20;49.80
36280;DHT22;22317;47.936;12.742;2023-05-19T09:33:35;13.20;49.90
36280;DHT22;22317;47.936;12.742;2023-05-19T09:36:02;13.30;49.90
36280;DHT22;22317;47.936;12.742;2023-05-19T09:38:30;15.40;50.90
36280;DHT22;22317;47.936;12.742;2023-05-19T09:40:57;13.40;49.80
36280;DHT22;22317;47.936;12.742;2023-05-19T09:43:29;13.50;49.80
36280;DHT22;22317;47.936;12.742;2023-05-19T09:46:07;13.60;49.80
36280;DHT22;22317;47.936;12.742;2023-05-19T09:48:34;13.90;49.90
36280;DHT22;22317;47.936;12.742;2023-05-19T09:51:01;14.10;49.80
36280;DHT22;22317;47.936;12.742;2023-05-19T09:53:29;14.30;49.50
36280;DHT22;22317;47.936;12.742;2023-05-19T09:55:56;14.50;49.30
36280;DHT22;22317;47.936;12.742;2023-05-19T09:58:22;14.70;49.10
36280;DHT22;22317;47.936;12.742;2023-05-19T10:00:49;14.90;48.70
36280;DHT22;22317;47.936;12.742;2023-05-19T10:03:15;15.00;48.30
36280;DHT22;22317;47.936;12.742;2023-05-19T10:05:42;15.10;48.30
36280;DHT22;22317;47.936;12.742;2023-05-19T10:08:11;15.20;48.00
36280;DHT22;22317;47.936;12.742;2023-05-19T10:10:37;15.30;47.70
36280;DHT22;22317;47.936;12.742;2023-05-19T10:13:04;15.30;47.50
36280;DHT22;22317;47.936;12.742;2023-05-19T10:15:30;15.40;47.40
36280;DHT22;22317;47.936;12.742;2023-05-19T10:17:57;15.40;47.30
36280;DHT22;22317;47.936;12.742;2023-05-19T10:20:25;15.50;47.00
36280;DHT22;22317;47.936;12.742;2023-05-19T10:22:51;15.50;46.80
36280;DHT22;22317;47.936;12.742;2023-05-19T10:25:17;15.50;46.70
36280;DHT22;22317;47.936;12.742;2023-05-19T10:27:55;15.50;46.70
36280;DHT22;22317;47.936;12.742;2023-05-19T10:30:32;15.60;46.30
36280;DHT22;22317;47.936;12.742;2023-05-19T10:33:00;15.50;46.30
36280;DHT22;22317;47.936;12.742;2023-05-19T10:38:17;15.50;46.50
36280;DHT22;22317;47.936;12.742;2023-05-19T10:40:52;15.50;46.60
36280;DHT22;22317;47.936;12.742;2023-05-19T10:43:35;15.70;46.90
36280;DHT22;22317;47.936;12.742;2023-05-19T10:46:03;15.80;46.60
36280;DHT22;22317;47.936;12.742;2023-05-19T10:48:33;16.00;46.60
36280;DHT22;22317;47.936;12.742;2023-05-19T10:51:02;16.10;46.20
36280;DHT22;22317;47.936;12.742;2023-05-19T10:53:32;16.20;45.90
36280;DHT22;22317;47.936;12.742;2023-05-19T10:56:00;16.20;45.50
36280;DHT22;22317;47.936;12.742;2023-05-19T10:58:49;16.20;45.50
36280;DHT22;22317;47.936;12.742;2023-05-19T11:01:17;16.30;45.30
36280;DHT22;22317;47.936;12.742;2023-05-19T11:03:50;16.30;45.20
36280;DHT22;22317;47.936;12.742;2023-05-19T11:08:46;16.20;45.10
36280;DHT22;22317;47.936;12.742;2023-05-19T11:11:16;16.10;45.00
36280;DHT22;22317;47.936;12.742;2023-05-19T11:13:45;16.10;45.00
36280;DHT22;22317;47.936;12.742;2023-05-19T11:16:12;16.10;45.20
36280;DHT22;22317;47.936;12.742;2023-05-19T11:18:38;16.10;44.90
36280;DHT22;22317;47.936;12.742;2023-05-19T11:21:04;16.10;44.90
36280;DHT22;22317;47.936;12.742;2023-05-19T11:23:32;16.10;45.20
36280;DHT22;22317;47.936;12.742;2023-05-19T11:26:01;16.30;45.40
36280;DHT22;22317;47.936;12.742;2023-05-19T11:28:27;16.40;45.40
36280;DHT22;22317;47.936;12.742;2023-05-19T11:30:55;16.60;45.30
36280;DHT22;22317;47.936;12.742;2023-05-19T11:33:22;16.70;45.20
36280;DHT22;22317;47.936;12.742;2023-05-19T11:35:53;16.90;45.20
36280;DHT22;22317;47.936;12.742;2023-05-19T11:38:19;16.90;44.50
36280;DHT22;22317;47.936;12.742;2023-05-19T11:40:46;16.80;44.00
36280;DHT22;22317;47.936;12.742;2023-05-19T11:43:12;16.80;44.10
36280;DHT22;22317;47.936;12.742;2023-05-19T11:45:38;16.70;44.10
36280;DHT22;22317;47.936;12.742;2023-05-19T11:48:04;16.60;44.00
36280;DHT22;22317;47.936;12.742;2023-05-19T11:50:31;16.60;44.20
36280;DHT22;22317;47.936;12.742;2023-05-19T11:52:59;16.70;44.40
36280;DHT22;22317;47.936;12.742;2023-05-19T11:55:25;16.80;44.40
36280;DHT22;22317;47.936;12.742;2023-05-19T12:00:22;17.00;44.40
36280;DHT22;22317;47.936;12.742;2023-05-19T12:02:47;17.10;44.00
36280;DHT22;22317;47.936;12.742;2023-05-19T12:05:26;17.20;44.00
36280;DHT22;22317;47.936;12.742;2023-05-19T12:07:53;17.50;44.10
36280;DHT22;22317;47.936;12.742;2023-05-19T12:10:26;17.70;44.20
36280;DHT22;22317;47.936;12.742;2023-05-19T12:12:53;18.00;44.00
36280;DHT22;22317;47.936;12.742;2023-05-19T12:15:20;18.10;43.30
36280;DHT22;22317;47.936;12.742;2023-05-19T12:18:13;18.20;43.00
36280;DHT22;22317;47.936;12.742;2023-05-19T12:20:38;18.30;42.80
36280;DHT22;22317;47.936;12.742;2023-05-19T12:23:04;18.50;42.90
36280;DHT22;22317;47.936;12.742;2023-05-19T12:25:31;18.70;42.80
36280;DHT22;22317;47.936;12.742;2023-05-19T12:28:00;18.80;42.60
36280;DHT22;22317;47.936;12.742;2023-05-19T12:30:29;19.10;42.60
36280;DHT22;22317;47.936;12.742;2023-05-19T12:32:55;19.20;42.30
36280;DHT22;22317;47.936;12.742;2023-05-19T12:35:28;19.40;42.20
36280;DHT22;22317;47.936;12.742;2023-05-19T12:37:54;19.60;42.00
36280;DHT22;22317;47.936;12.742;2023-05-19T12:40:20;19.70;41.60
36280;DHT22;22317;47.936;12.742;2023-05-19T12:42:46;19.80;41.20
36280;DHT22;22317;47.936;12.742;2023-05-19T12:45:13;19.80;41.10
36280;DHT22;22317;47.936;12.742;2023-05-19T12:47:39;19.80;40.90
36280;DHT22;22317;47.936;12.742;2023-05-19T12:50:07;20.00;41.10
36280;DHT22;22317;47.936;12.742;2023-05-19T12:52:47;20.20;40.80
36280;DHT22;22317;47.936;12.742;2023-05-19T12:55:13;20.40;40.20
36280;DHT22;22317;47.936;12.742;2023-05-19T12:57:43;20.50;40.60
36280;DHT22;22317;47.936;12.742;2023-05-19T13:00:17;20.70;40.50
36280;DHT22;22317;47.936;12.742;2023-05-19T13:03:01;20.80;39.90
36280;DHT22;22317;47.936;12.742;2023-05-19T13:05:30;20.80;39.10
36280;DHT22;22317;47.936;12.742;2023-05-19T13:07:56;20.80;39.20
36280;DHT22;22317;47.936;12.742;2023-05-19T13:10:23;20.70;39.10
36280;DHT22;22317;47.936;12.742;2023-05-19T13:12:51;20.70;39.20
36280;DHT22;22317;47.936;12.742;2023-05-19T13:15:17;20.80;39.20
36280;DHT22;22317;47.936;12.742;2023-05-19T13:17:43;20.80;39.10
36280;DHT22;22317;47.936;12.742;2023-05-19T13:20:11;20.80;39.00
36280;DHT22;22317;47.936;12.742;2023-05-19T13:22:37;21.00;39.10
36280;DHT22;22317;47.936;12.742;2023-05-19T13:25:03;21.10;39.00
36280;DHT22;22317;47.936;12.742;2023-05-19T13:27:29;21.30;38.90
36280;DHT22;22317;47.936;12.742;2023-05-19T13:29:55;21.50;38.90
36280;DHT22;22317;47.936;12.742;2023-05-19T13:32:20;21.60;38.60
36280;DHT22;22317;47.936;12.742;2023-05-19T13:34:46;21.70;38.00
36280;DHT22;22317;47.936;12.742;2023-05-19T13:37:12;21.80;37.60
36280;DHT22;22317;47.936;12.742;2023-05-19T13:39:41;21.80;37.50
36280;DHT22;22317;47.936;12.742;2023-05-19T13:42:06;21.80;37.30
36280;DHT22;22317;47.936;12.742;2023-05-19T13:44:32;21.80;37.40
36280;DHT22;22317;47.936;12.742;2023-05-19T13:46:58;21.70;37.00
36280;DHT22;22317;47.936;12.742;2023-05-19T13:49:25;21.70;37.30
36280;DHT22;22317;47.936;12.742;2023-05-19T13:51:55;21.80;37.50
36280;DHT22;22317;47.936;12.742;2023-05-19T13:54:21;21.90;37.30
36280;DHT22;22317;47.936;12.742;2023-05-19T13:56:47;22.00;37.40
36280;DHT22;22317;47.936;12.742;2023-05-19T13:59:13;22.10;37.50
36280;DHT22;22317;47.936;12.742;2023-05-19T14:01:40;22.20;37.20
36280;DHT22;22317;47.936;12.742;2023-05-19T14:04:06;22.30;36.80
36280;DHT22;22317;47.936;12.742;2023-05-19T14:06:31;22.40;36.80
36280;DHT22;22317;47.936;12.742;2023-05-19T14:08:57;22.50;36.50
36280;DHT22;22317;47.936;12.742;2023-05-19T14:11:23;22.50;36.30
36280;DHT22;22317;47.936;12.742;2023-05-19T14:13:49;22.40;36.00
36280;DHT22;22317;47.936;12.742;2023-05-19T14:16:16;22.40;36.10
36280;DHT22;22317;47.936;12.742;2023-05-19T14:18:42;22.30;36.20
36280;DHT22;22317;47.936;12.742;2023-05-19T14:21:08;22.30;36.20
36280;DHT22;22317;47.936;12.742;2023-05-19T14:23:34;22.30;36.10
36280;DHT22;22317;47.936;12.742;2023-05-19T14:26:00;22.30;36.10
36280;DHT22;22317;47.936;12.742;2023-05-19T14:28:25;22.40;36.20
36280;DHT22;22317;47.936;12.742;2023-05-19T14:30:51;22.50;36.10
36280;DHT22;22317;47.936;12.742;2023-05-19T14:33:17;22.60;35.70
36280;DHT22;22317;47.936;12.742;2023-05-19T14:35:44;22.70;35.40
36280;DHT22;22317;47.936;12.742;2023-05-19T14:38:10;22.70;35.20
36280;DHT22;22317;47.936;12.742;2023-05-19T14:40:36;22.70;35.10
36280;DHT22;22317;47.936;12.742;2023-05-19T14:43:02;22.70;35.00
36280;DHT22;22317;47.936;12.742;2023-05-19T14:45:28;22.60;34.90
36280;DHT22;22317;47.936;12.742;2023-05-19T14:47:54;22.60;35.00
36280;DHT22;22317;47.936;12.742;2023-05-19T14:50:20;22.60;35.00
36280;DHT22;22317;47.936;12.742;2023-05-19T14:52:46;22.60;34.90
36280;DHT22;22317;47.936;12.742;2023-05-19T14:55:11;22.60;35.10
36280;DHT22;22317;47.936;12.742;2023-05-19T14:57:37;22.60;35.00
36280;DHT22;22317;47.936;12.742;2023-05-19T15:00:03;22.60;34.90
36280;DHT22;22317;47.936;12.742;2023-05-19T15:02:29;22.50;35.30
36280;DHT22;22317;47.936;12.742;2023-05-19T15:04:55;22.50;35.50
36280;DHT22;22317;47.936;12.742;2023-05-19T15:07:20;22.60;35.50
36280;DHT22;22317;47.936;12.742;2023-05-19T15:09:46;22.60;35.20
36280;DHT22;22317;47.936;12.742;2023-05-19T15:12:12;22.60;35.00
36280;DHT22;22317;47.936;12.742;2023-05-19T15:14:38;22.60;35.30
36280;DHT22;22317;47.936;12.742;2023-05-19T15:17:04;22.70;35.60
36280;DHT22;22317;47.936;12.742;2023-05-19T15:19:30;22.80;35.80
36280;DHT22;22317;47.936;12.742;2023-05-19T15:21:55;22.90;35.60
36280;DHT22;22317;47.936;12.742;2023-05-19T15:24:21;23.00;35.50
36280;DHT22;22317;47.936;12.742;2023-05-19T15:26:47;23.10;35.00
36280;DHT22;22317;47.936;12.742;2023-05-19T15:29:13;23.10;34.80
36280;DHT22;22317;47.936;12.742;2023-05-19T15:31:38;23.00;34.70
36280;DHT22;22317;47.936;12.742;2023-05-19T15:34:04;23.00;34.60
36280;DHT22;22317;47.936;12.742;2023-05-19T15:36:30;22.90;34.70
36280;DHT22;22317;47.936;12.742;2023-05-19T15:38:56;22.80;34.60
36280;DHT22;22317;47.936;12.742;2023-05-19T15:41:22;22.70;34.70
36280;DHT22;22317;47.936;12.742;2023-05-19T15:43:47;22.60;34.90
36280;DHT22;22317;47.936;12.742;2023-05-19T15:46:13;22.50;34.80
36280;DHT22;22317;47.936;12.742;2023-05-19T15:48:40;22.40;34.80
36280;DHT22;22317;47.936;12.742;2023-05-19T15:51:06;22.20;35.10
36280;DHT22;22317;47.936;12.742;2023-05-19T15:53:32;22.10;35.30
36280;DHT22;22317;47.936;12.742;2023-05-19T15:55:57;22.10;35.30